Impacts METAR Board
IDs:

KSAN - San Diego Intl Arpt, CA, US

Updated at: 1200 UTC 15 Jul 2020
Potential Impact None Slight Moderate High
Time 15/00Z 15/01Z 15/02Z 15/03Z 15/04Z 15/05Z 15/06Z 15/07Z 15/08Z 15/09Z 15/10Z 15/11Z 15/12Z
Temp73 72 71 69 68 68 69 69 69 69 68 69 69
Dewpt59 59 60 59 59 59 59 59 59 59 58 59 58
Altim29.96 29.95 29.96 29.96 29.97 29.98 29.98 29.98 29.97 29.96 29.95 29.94 29.95
VIS10 10 10 10 10 10 10 10 10 10 10 10 10
CIG-- -- -- -- -- 18 18 18 19 21 22 21 21
CoverFEWFEWFEWFEWFEWBKNBKNOVCOVCOVCBKNBKNOVC
FltCatVFRVFRVFRVFRVFRMVFRMVFRMVFRMVFRMVFRMVFRMVFRMVFR
WX--------------------------
WDir2902903003003003003103100260310030
WSpd6 6 6 4 4 3 3 3 0 4 3 0 4
WGst-- -- -- -- -- -- -- -- -- -- -- -- --
Raw hourly METARs
KSAN 142351Z 29006KT 10SM FEW018 FEW250 23/15 A2996 RMK AO2 SLP146 T02280150 10239 20222 58005
KSAN 150051Z 29006KT 10SM FEW018 FEW250 22/15 A2995 RMK AO2 SLP142 T02220150
KSAN 150151Z 30006KT 10SM FEW018 22/16 A2996 RMK AO2 SLP144 T02170156
KSAN 150251Z 30004KT 10SM FEW018 21/15 A2996 RMK AO2 SLP145 T02060150 55001
KSAN 150351Z 30004KT 10SM FEW018 20/15 A2997 RMK AO2 SLP147 T02000150
KSAN 150451Z 30003KT 10SM BKN018 20/15 A2998 RMK AO2 SLP150 T02000150
KSAN 150551Z 31003KT 10SM BKN018 21/15 A2998 RMK AO2 SLP151 T02060150 10228 20194 51006
KSAN 150651Z 31003KT 10SM OVC018 21/15 A2998 RMK AO2 SLP152 T02060150
KSAN 150751Z 00000KT 10SM OVC019 21/15 A2997 RMK AO2 SLP148 T02060150 402390194
KSAN 150851Z 26004KT 10SM OVC021 21/15 A2996 RMK AO2 SLP145 T02060150 58006
KSAN 150951Z 31003KT 10SM BKN022 20/14 A2995 RMK AO2 SLP141 T02000144
KSAN 151051Z 00000KT 10SM BKN021 21/15 A2994 RMK AO2 SLP139 T02060150
KSAN 151151Z 03004KT 10SM OVC021 21/14 A2995 RMK AO2 SLP141 T02060144 10211 20194 55005



Page loaded:  12:34 UTC  |   05:34 AM Pacific  |   06:34 AM Mountain  |   07:34 AM Central  |   08:34 AM Eastern

 

ADVISORIES

FORECASTS

FORECASTS

OBSERVATIONS

USER TOOLS

ABOUT US